Time;durP1;ratioP1;P1;durP2;ratioP2;P2;SDS_P1;SDS_P2;PMS_P1;PMS_P2;Temp;Humidity;BMP_temperature;BMP_pressure;BME280_temperature;BME280_humidity;BME280_pressure;Samples;Min_cycle;Max_cycle;Signal;HPM_P1;HPM_P2
2022/12/19 00:02:14;;;;;;;84.57;46.10;;;-0.40;99.90;;;;;;4100512;29;20119;-82
2022/12/19 00:04:34;;;;;;;81.30;46.05;;;-0.40;99.90;;;;;;4101134;29;20078;-82
2022/12/19 00:06:57;;;;;;;126.70;44.15;;;-0.40;99.90;;;;;;4085230;29;20123;-82
2022/12/19 00:09:17;;;;;;;153.90;43.63;;;-0.40;99.90;;;;;;4101147;29;20126;-82
2022/12/19 00:11:37;;;;;;;123.15;42.85;;;-0.30;99.90;;;;;;4100237;29;20178;-82
2022/12/19 00:13:57;;;;;;;90.07;36.20;;;-0.30;99.90;;;;;;4099792;29;20065;-82
2022/12/19 00:16:22;;;;;;;122.00;38.97;;;-0.30;99.90;;;;;;4093357;29;20193;-82
2022/12/19 00:18:44;;;;;;;70.82;37.35;;;-0.20;99.90;;;;;;4101118;29;20103;-82
2022/12/19 00:21:05;;;;;;;56.20;38.65;;;0.00;99.90;;;;;;4150609;28;20527;-82
2022/12/19 00:23:27;;;;;;;78.47;38.75;;;-0.10;99.90;;;;;;4140064;28;20092;-82
2022/12/19 00:25:47;;;;;;;67.97;38.33;;;-0.10;99.90;;;;;;4226274;28;20051;-82
2022/12/19 00:28:07;;;;;;;77.88;37.42;;;-0.20;99.90;;;;;;4230255;28;20403;-82
2022/12/19 00:30:28;;;;;;;66.57;35.17;;;-0.20;99.90;;;;;;4224511;28;20095;-82
2022/12/19 00:32:48;;;;;;;37.55;33.75;;;-0.10;99.90;;;;;;4219943;28;20089;-82
2022/12/19 00:35:08;;;;;;;33.08;30.48;;;-0.10;99.90;;;;;;4221035;28;20055;-82
2022/12/19 00:37:28;;;;;;;62.15;32.45;;;0.10;99.90;;;;;;4223197;28;20073;-82
2022/12/19 00:39:48;;;;;;;102.72;34.30;;;0.10;99.90;;;;;;4230326;28;20264;-82
2022/12/19 00:42:07;;;;;;;64.10;32.53;;;0.10;99.90;;;;;;4229122;28;20110;-82
2022/12/19 00:44:27;;;;;;;78.18;38.38;;;0.00;99.90;;;;;;4231101;28;20055;-82
2022/12/19 00:46:47;;;;;;;111.07;43.00;;;0.00;99.90;;;;;;4231085;28;20096;-82
2022/12/19 00:49:14;;;;;;;80.72;38.45;;;-0.10;99.90;;;;;;4232898;28;20065;-82
2022/12/19 00:51:36;;;;;;;123.05;41.08;;;-0.10;99.90;;;;;;4230370;28;20046;-83
2022/12/19 00:53:56;;;;;;;40.83;37.05;;;-0.20;99.90;;;;;;4218774;28;20038;-82
2022/12/19 00:56:20;;;;;;;36.73;34.23;;;-0.10;99.90;;;;;;4225702;28;20054;-82
2022/12/19 00:58:41;;;;;;;47.03;35.33;;;0.10;99.90;;;;;;4222486;28;20110;-82
2022/12/19 01:01:14;;;;;;;111.95;43.22;;;0.10;99.90;;;;;;4231790;28;20293;-82
2022/12/19 01:03:34;;;;;;;404.02;64.80;;;0.00;99.90;;;;;;4228050;28;20081;-82
2022/12/19 01:05:54;;;;;;;408.55;63.70;;;-0.20;99.90;;;;;;4228197;28;20090;-82
2022/12/19 01:08:14;;;;;;;414.17;68.18;;;-0.40;99.90;;;;;;4229934;28;20243;-82
2022/12/19 01:10:47;;;;;;;486.25;67.75;;;-0.50;99.90;;;;;;4228643;28;20055;-82
2022/12/19 01:13:07;;;;;;;356.10;55.97;;;-0.50;99.90;;;;;;4228942;28;20050;-82
2022/12/19 01:15:27;;;;;;;402.05;61.60;;;-0.60;99.90;;;;;;4222122;28;20286;-82
2022/12/19 01:17:48;;;;;;;330.63;54.17;;;-0.70;99.90;;;;;;4227812;28;20108;-82
2022/12/19 01:20:08;;;;;;;298.95;54.53;;;-0.80;99.90;;;;;;4233334;28;20297;-82
2022/12/19 01:22:28;;;;;;;237.30;54.22;;;-0.80;99.90;;;;;;4231272;28;20066;-82
2022/12/19 01:24:48;;;;;;;227.18;51.78;;;-0.80;99.90;;;;;;4221450;28;20116;-82
2022/12/19 01:27:08;;;;;;;199.93;53.35;;;-0.90;99.90;;;;;;4217142;28;20113;-82
2022/12/19 01:29:28;;;;;;;180.52;54.33;;;-0.80;99.90;;;;;;4213657;28;20069;-82
2022/12/19 01:31:47;;;;;;;207.82;47.53;;;-0.80;99.90;;;;;;4213942;28;20047;-82
2022/12/19 01:34:08;;;;;;;234.13;52.55;;;-0.90;99.90;;;;;;4222686;28;20074;-82
2022/12/19 01:36:28;;;;;;;160.30;50.25;;;-0.90;99.90;;;;;;4222257;28;20097;-82
2022/12/19 01:38:47;;;;;;;140.43;45.15;;;-0.90;99.90;;;;;;4223200;28;20120;-82
2022/12/19 01:41:07;;;;;;;134.88;43.97;;;-0.80;99.90;;;;;;4225096;28;20062;-82
2022/12/19 01:43:53;;;;;;;159.13;45.33;;;-0.80;99.90;;;;;;4231861;28;20054;-82
2022/12/19 01:46:14;;;;;;;77.03;44.00;;;-0.80;99.90;;;;;;4221860;28;20047;-82
2022/12/19 01:48:38;;;;;;;119.57;40.00;;;-0.80;99.90;;;;;;4231238;28;20089;-82
2022/12/19 01:51:02;;;;;;;129.15;39.47;;;-0.70;99.90;;;;;;4230539;28;20068;-82
2022/12/19 01:53:27;;;;;;;99.75;42.03;;;-0.70;99.90;;;;;;4229697;28;20047;-82
2022/12/19 01:55:47;;;;;;;158.43;44.05;;;-0.70;99.90;;;;;;4222934;28;20178;-82
2022/12/19 01:58:08;;;;;;;51.03;37.05;;;-0.80;99.90;;;;;;4227503;28;20055;-82
2022/12/19 02:00:28;;;;;;;50.83;37.78;;;-0.70;99.90;;;;;;4227990;28;20050;-82
2022/12/19 02:02:55;;;;;;;55.00;37.58;;;-0.60;99.90;;;;;;4227036;28;20055;-82
2022/12/19 02:05:15;;;;;;;77.13;39.83;;;-0.60;99.90;;;;;;4231178;28;20111;-82
2022/12/19 02:07:37;;;;;;;73.95;39.35;;;-0.70;99.90;;;;;;4232147;28;20148;-82
2022/12/19 02:09:57;;;;;;;113.47;39.75;;;-0.70;99.90;;;;;;4227134;28;20120;-82
2022/12/19 02:12:17;;;;;;;81.45;37.38;;;-0.80;99.90;;;;;;4228778;28;20059;-82
2022/12/19 02:14:37;;;;;;;38.20;34.80;;;-0.90;99.90;;;;;;4231807;28;20381;-82
2022/12/19 02:17:19;;;;;;;34.42;32.72;;;-0.90;99.90;;;;;;4236469;28;20085;-82
2022/12/19 02:20:30;;;;;;;41.13;37.53;;;-0.80;99.90;;;;;;4228528;28;20104;-82
2022/12/19 02:22:50;;;;;;;40.90;37.53;;;-0.60;99.90;;;;;;4194663;28;20043;-82
2022/12/19 02:25:34;;;;;;;67.35;36.75;;;-0.50;99.90;;;;;;4215845;28;20051;-82
2022/12/19 02:28:39;;;;;;;75.35;38.22;;;-0.40;99.90;;;;;;4215314;28;20066;-82
2022/12/19 02:31:23;;;;;;;145.18;42.05;;;-0.50;99.90;;;;;;4229511;28;20046;-82
2022/12/19 02:33:49;;;;;;;125.18;45.25;;;-0.60;99.90;;;;;;4227659;28;20074;-82
2022/12/19 02:36:26;;;;;;;98.57;41.22;;;-0.70;99.90;;;;;;4212744;28;20048;-82
2022/12/19 02:39:13;;;;;;;131.85;44.95;;;-0.70;99.90;;;;;;4229539;28;20040;-82
2022/12/19 02:41:42;;;;;;;125.55;43.33;;;-0.70;99.90;;;;;;4230470;28;20288;-82
2022/12/19 02:44:02;;;;;;;176.52;49.63;;;-0.80;99.90;;;;;;4226600;28;20078;-82
2022/12/19 02:46:23;;;;;;;201.05;44.28;;;-0.80;99.90;;;;;;4221002;28;20059;-82
2022/12/19 02:48:43;;;;;;;207.75;45.13;;;-0.80;99.90;;;;;;4227942;28;20066;-82
2022/12/19 02:51:04;;;;;;;137.55;39.67;;;-0.80;99.90;;;;;;4229964;28;20226;-82
2022/12/19 02:53:24;;;;;;;131.00;43.15;;;-0.90;99.90;;;;;;4219133;28;20259;-82
2022/12/19 02:56:03;;;;;;;102.43;42.58;;;-0.80;99.90;;;;;;4223302;28;20113;-82
2022/12/19 02:58:56;;;;;;;97.50;36.88;;;-0.80;99.90;;;;;;4230222;28;20400;-82
2022/12/19 03:01:38;;;;;;;98.53;39.58;;;-0.80;99.90;;;;;;4185108;28;20156;-82
2022/12/19 03:04:11;;;;;;;143.80;42.53;;;-0.90;99.90;;;;;;4219088;28;20038;-82
2022/12/19 03:07:00;;;;;;;113.20;38.05;;;-1.00;99.90;;;;;;4233564;28;20074;-82
2022/12/19 03:09:41;;;;;;;130.23;39.80;;;-1.00;99.90;;;;;;4146708;28;20130;-82
2022/12/19 03:12:08;;;;;;;116.63;38.55;;;-1.00;99.90;;;;;;4134444;28;20061;-82
2022/12/19 03:14:34;;;;;;;176.07;44.75;;;-1.00;99.90;;;;;;4159317;28;20083;-81
2022/12/19 03:17:33;;;;;;;194.48;48.08;;;-1.10;99.90;;;;;;4152552;28;20037;-82
2022/12/19 03:19:53;;;;;;;136.50;43.90;;;-1.10;99.90;;;;;;4108165;28;20049;-82
2022/12/19 03:22:13;;;;;;;151.20;44.10;;;-1.10;99.90;;;;;;4091557;29;20062;-82
2022/12/19 03:24:33;;;;;;;216.77;50.83;;;-1.10;99.90;;;;;;4096461;29;20054;-82
2022/12/19 03:26:56;;;;;;;272.50;53.33;;;-1.10;99.90;;;;;;4103011;29;20090;-81
2022/12/19 03:29:25;;;;;;;188.52;48.55;;;-1.20;99.90;;;;;;4100107;29;20243;-82
2022/12/19 03:31:46;;;;;;;171.93;44.90;;;-1.20;99.90;;;;;;4101018;29;20051;-82
2022/12/19 03:34:26;;;;;;;99.05;39.78;;;-1.20;99.90;;;;;;4101413;29;20051;-82
2022/12/19 03:36:52;;;;;;;60.28;40.63;;;-1.10;99.90;;;;;;4103464;29;20042;-82
2022/12/19 03:39:14;;;;;;;98.30;44.67;;;-1.00;99.90;;;;;;4103198;29;20058;-82
2022/12/19 03:44:15;;;;;;;89.18;38.40;;;-1.00;99.90;;;;;;4101509;29;20083;-82
2022/12/19 03:46:44;;;;;;;56.25;40.13;;;-1.00;99.90;;;;;;4134440;28;20375;-81
2022/12/19 03:49:04;;;;;;;115.22;41.28;;;-1.00;99.90;;;;;;4147655;28;20072;-81
2022/12/19 03:51:55;;;;;;;116.20;40.65;;;-1.00;99.90;;;;;;4144558;28;20056;-82
2022/12/19 03:54:26;;;;;;;36.83;34.33;;;-1.00;99.90;;;;;;4135000;28;20313;-82
2022/12/19 03:57:03;;;;;;;58.88;34.65;;;-1.10;99.90;;;;;;4216771;28;20284;-82
2022/12/19 03:59:40;;;;;;;38.03;35.03;;;-1.00;99.90;;;;;;4227084;28;20054;-81
2022/12/19 04:02:02;;;;;;;57.78;36.92;;;-0.80;99.90;;;;;;4221319;28;20443;-81
2022/12/19 04:04:23;;;;;;;144.45;38.38;;;-0.80;99.90;;;;;;4223782;28;20306;-81
2022/12/19 04:06:45;;;;;;;133.70;45.50;;;-0.90;99.90;;;;;;4219180;28;20055;-82
2022/12/19 04:09:06;;;;;;;371.35;53.90;;;-0.90;99.90;;;;;;4217899;28;20043;-82
2022/12/19 04:11:33;;;;;;;293.25;47.65;;;-1.00;99.90;;;;;;4222369;28;20086;-81
2022/12/19 04:13:59;;;;;;;195.75;47.38;;;-1.00;99.90;;;;;;4231713;28;20154;-81
2022/12/19 04:16:34;;;;;;;165.77;43.45;;;-1.00;99.90;;;;;;4230111;28;20045;-81
2022/12/19 04:19:19;;;;;;;66.45;35.70;;;-1.00;99.90;;;;;;4226055;28;20395;-81
2022/12/19 04:21:48;;;;;;;129.25;39.95;;;-1.10;99.90;;;;;;4229089;28;20046;-81
2022/12/19 04:24:22;;;;;;;131.90;41.95;;;-1.00;99.90;;;;;;4225998;28;20082;-81
2022/12/19 04:26:46;;;;;;;108.88;40.03;;;-1.00;99.90;;;;;;4225686;28;20061;-81
2022/12/19 04:29:07;;;;;;;133.23;37.70;;;-1.00;99.90;;;;;;4216052;28;20111;-81
2022/12/19 04:31:27;;;;;;;174.73;41.08;;;-1.00;99.90;;;;;;4213166;28;20107;-81
2022/12/19 04:33:48;;;;;;;202.20;40.88;;;-1.00;99.90;;;;;;4231696;28;20066;-82
2022/12/19 04:36:09;;;;;;;115.63;36.33;;;-1.00;99.90;;;;;;4226581;28;20051;-81
2022/12/19 04:38:29;;;;;;;65.50;37.67;;;-1.00;99.90;;;;;;4214507;28;20048;-81
2022/12/19 04:40:49;;;;;;;38.25;35.50;;;-1.00;99.90;;;;;;4222926;28;20046;-81
2022/12/19 04:43:09;;;;;;;118.32;38.38;;;-0.90;99.90;;;;;;4231777;28;20156;-81
2022/12/19 04:45:28;;;;;;;169.00;38.00;;;-0.90;99.90;;;;;;4229910;28;20078;-81
2022/12/19 04:47:49;;;;;;;168.18;40.92;;;-0.90;99.90;;;;;;4228823;28;20070;-81
2022/12/19 04:50:09;;;;;;;104.20;40.83;;;-0.90;99.90;;;;;;4214036;28;20096;-81
2022/12/19 04:52:29;;;;;;;164.27;39.45;;;-0.90;99.90;;;;;;4229318;28;20082;-81
2022/12/19 04:54:49;;;;;;;129.57;40.17;;;-0.90;99.90;;;;;;4222551;28;20109;-81
2022/12/19 04:57:09;;;;;;;171.10;39.08;;;-0.90;99.90;;;;;;4229179;28;20080;-82
2022/12/19 04:59:29;;;;;;;94.13;36.28;;;-1.00;99.90;;;;;;4222986;28;20042;-81
2022/12/19 05:01:49;;;;;;;157.25;41.33;;;-1.00;99.90;;;;;;4230608;28;20101;-81
2022/12/19 05:04:09;;;;;;;115.25;35.67;;;-1.10;99.90;;;;;;4219015;28;20166;-81
2022/12/19 05:06:29;;;;;;;104.28;40.10;;;-1.10;99.90;;;;;;4236270;28;20055;-81
2022/12/19 05:08:49;;;;;;;141.73;39.83;;;-1.10;99.90;;;;;;4224446;28;20074;-81
2022/12/19 05:11:12;;;;;;;58.88;38.33;;;-1.10;99.90;;;;;;4216692;28;20066;-81
2022/12/19 05:13:39;;;;;;;101.20;38.90;;;-1.00;99.90;;;;;;4231644;28;20039;-81
2022/12/19 05:16:04;;;;;;;57.17;36.67;;;-1.10;99.90;;;;;;4229096;28;20105;-81
2022/12/19 05:18:25;;;;;;;48.47;33.70;;;-1.10;99.90;;;;;;4222190;28;20071;-81
2022/12/19 05:20:47;;;;;;;67.60;39.03;;;-1.10;99.90;;;;;;4214476;28;20082;-81
2022/12/19 05:23:07;;;;;;;93.93;37.83;;;-1.00;99.90;;;;;;4225287;28;20062;-81
2022/12/19 05:25:36;;;;;;;41.15;38.80;;;-1.10;99.90;;;;;;4229891;28;20050;-81
2022/12/19 05:27:56;;;;;;;388.05;48.85;;;-1.00;99.90;;;;;;4222558;28;20231;-81
2022/12/19 05:30:16;;;;;;;40.60;35.20;;;-1.10;99.90;;;;;;4232283;28;20055;-81
2022/12/19 05:32:36;;;;;;;99.80;38.25;;;-1.20;99.90;;;;;;4222707;28;20117;-81
2022/12/19 05:34:56;;;;;;;171.05;44.40;;;-1.10;99.90;;;;;;4222772;28;20369;-81
2022/12/19 05:37:16;;;;;;;117.97;39.50;;;-1.10;99.90;;;;;;4222805;28;20047;-81
2022/12/19 05:39:36;;;;;;;87.88;38.47;;;-1.20;99.90;;;;;;4230662;28;20065;-81
2022/12/19 05:41:56;;;;;;;37.97;35.05;;;-1.10;99.90;;;;;;4215884;28;20063;-82
2022/12/19 05:44:16;;;;;;;120.43;36.92;;;-1.10;99.90;;;;;;4229790;28;20070;-81
2022/12/19 05:46:36;;;;;;;76.93;35.97;;;-1.10;99.90;;;;;;4225906;28;20082;-81
2022/12/19 05:48:56;;;;;;;116.78;35.03;;;-1.10;99.90;;;;;;4222690;28;20111;-81
2022/12/19 05:51:16;;;;;;;245.05;43.25;;;-1.20;99.90;;;;;;4229643;28;20074;-81
2022/12/19 05:53:37;;;;;;;244.50;46.83;;;-1.20;99.90;;;;;;4230398;28;20051;-81
2022/12/19 05:56:09;;;;;;;297.45;42.88;;;-1.20;99.90;;;;;;4231566;28;20258;-81
2022/12/19 05:58:30;;;;;;;211.43;44.42;;;-1.30;99.90;;;;;;4233120;28;20077;-81
2022/12/19 06:00:49;;;;;;;276.10;45.90;;;-1.40;99.90;;;;;;4223093;28;20087;-81
2022/12/19 06:03:09;;;;;;;38.10;33.97;;;-1.40;99.90;;;;;;4215769;28;20117;-81
2022/12/19 06:05:30;;;;;;;36.95;33.08;;;-1.20;99.90;;;;;;4227674;28;20063;-81
2022/12/19 06:07:50;;;;;;;47.47;36.97;;;-1.10;99.90;;;;;;4222159;28;20085;-81
2022/12/19 06:10:10;;;;;;;156.80;40.70;;;-1.10;99.90;;;;;;4223396;28;20051;-81
2022/12/19 06:12:30;;;;;;;61.72;36.47;;;-1.20;99.90;;;;;;4232605;28;20035;-81
2022/12/19 06:14:49;;;;;;;132.00;39.60;;;-1.30;99.90;;;;;;4222985;28;20058;-81
2022/12/19 06:17:09;;;;;;;238.43;48.63;;;-1.30;99.90;;;;;;4217270;28;20362;-81
2022/12/19 06:19:30;;;;;;;230.68;44.78;;;-1.30;99.90;;;;;;4227164;28;20108;-81
2022/12/19 06:21:50;;;;;;;303.10;51.63;;;-1.40;99.90;;;;;;4210186;28;20055;-82
2022/12/19 06:24:09;;;;;;;269.80;46.90;;;-1.40;99.90;;;;;;4219287;28;20047;-81
2022/12/19 06:26:30;;;;;;;259.00;48.70;;;-1.40;99.90;;;;;;4232306;28;20149;-83
2022/12/19 06:28:51;;;;;;;256.58;49.45;;;-1.40;99.90;;;;;;4221914;28;20039;-83
2022/12/19 06:31:12;;;;;;;202.77;45.50;;;-1.40;99.90;;;;;;4232687;28;20237;-83
2022/12/19 06:33:32;;;;;;;152.68;47.00;;;-1.40;99.90;;;;;;4224942;28;20066;-83
2022/12/19 06:36:01;;;;;;;216.40;47.38;;;-1.40;99.90;;;;;;4218513;28;20059;-83
2022/12/19 06:38:21;;;;;;;221.25;48.08;;;-1.40;99.90;;;;;;4232265;28;20235;-83
2022/12/19 06:43:25;;;;;;;131.32;40.80;;;-1.40;99.90;;;;;;4235198;28;20062;-83
2022/12/19 06:45:45;;;;;;;180.30;41.13;;;-1.40;99.90;;;;;;4221239;28;20078;-83
2022/12/19 06:48:05;;;;;;;165.68;39.10;;;-1.40;99.90;;;;;;4218031;28;20075;-83
2022/12/19 06:50:25;;;;;;;49.55;34.15;;;-1.40;99.90;;;;;;4225839;28;20289;-83
2022/12/19 06:52:45;;;;;;;107.50;36.22;;;-1.40;99.90;;;;;;4225264;28;20354;-83
2022/12/19 06:55:07;;;;;;;97.43;33.22;;;-1.40;99.90;;;;;;4222049;28;20108;-83
2022/12/19 06:57:27;;;;;;;33.72;30.60;;;-1.40;99.90;;;;;;4236886;28;20034;-83
2022/12/19 06:59:47;;;;;;;38.05;34.28;;;-1.30;99.90;;;;;;4229585;28;20071;-83
2022/12/19 07:02:17;;;;;;;74.50;35.83;;;-1.20;99.90;;;;;;4242656;28;20417;-82
2022/12/19 07:04:46;;;;;;;109.80;31.75;;;-1.30;99.90;;;;;;4236830;28;20043;-83
2022/12/19 07:07:07;;;;;;;38.22;35.00;;;-1.30;99.90;;;;;;4221237;28;20040;-83
2022/12/19 07:09:28;;;;;;;48.65;29.52;;;-1.20;99.90;;;;;;4218856;28;20047;-83
2022/12/19 07:11:48;;;;;;;49.40;33.30;;;-1.10;99.90;;;;;;4214965;28;20114;-83
2022/12/19 07:14:08;;;;;;;52.65;34.65;;;-1.10;99.90;;;;;;4234268;28;20059;-83
2022/12/19 07:16:30;;;;;;;97.88;39.03;;;-1.10;99.90;;;;;;4216675;28;20059;-83
2022/12/19 07:18:50;;;;;;;80.30;40.83;;;-1.10;99.90;;;;;;4222973;28;20120;-83
2022/12/19 07:21:10;;;;;;;83.07;41.00;;;-1.10;99.90;;;;;;4229853;28;20238;-83
2022/12/19 07:23:31;;;;;;;97.90;38.38;;;-1.10;99.90;;;;;;4218474;28;20046;-83
2022/12/19 07:25:51;;;;;;;141.93;45.40;;;-1.10;99.90;;;;;;4232596;28;20124;-83
2022/12/19 07:28:12;;;;;;;118.18;39.55;;;-1.10;99.90;;;;;;4232632;28;20107;-83
2022/12/19 07:30:32;;;;;;;77.35;39.13;;;-1.10;99.90;;;;;;4220486;28;20051;-82
2022/12/19 07:32:52;;;;;;;83.38;35.28;;;-1.10;99.90;;;;;;4222928;28;20047;-82
2022/12/19 07:35:13;;;;;;;60.80;33.15;;;-1.00;99.90;;;;;;4218353;28;20043;-82
2022/12/19 07:37:33;;;;;;;30.90;28.10;;;-0.90;99.90;;;;;;4232362;28;20057;-83
2022/12/19 07:39:53;;;;;;;99.03;35.92;;;-0.90;99.90;;;;;;4233721;28;20285;-82
2022/12/19 07:42:13;;;;;;;74.10;37.17;;;-0.80;99.90;;;;;;4221991;28;20472;-83
2022/12/19 07:44:34;;;;;;;58.47;36.55;;;-1.00;99.90;;;;;;4221933;28;20051;-82
2022/12/19 07:46:54;;;;;;;70.13;35.22;;;-1.00;99.90;;;;;;4213182;28;20047;-83
2022/12/19 07:49:14;;;;;;;106.30;38.47;;;-1.00;99.90;;;;;;4229660;28;20109;-82
2022/12/19 07:51:41;;;;;;;116.10;34.17;;;-0.90;99.90;;;;;;4224122;28;20362;-82
2022/12/19 07:54:03;;;;;;;58.88;35.95;;;-1.00;99.90;;;;;;4218344;28;20039;-83
2022/12/19 07:56:25;;;;;;;102.03;37.47;;;-0.90;99.90;;;;;;4221311;28;20047;-83
2022/12/19 07:58:45;;;;;;;240.38;54.35;;;-0.80;99.90;;;;;;4218995;28;20262;-83
2022/12/19 08:01:05;;;;;;;252.13;46.40;;;-0.80;99.90;;;;;;4228179;28;20070;-83
2022/12/19 08:03:27;;;;;;;136.30;40.17;;;-0.80;99.90;;;;;;4224509;28;20081;-83
2022/12/19 08:05:47;;;;;;;115.88;47.15;;;-0.80;99.90;;;;;;4223099;28;20111;-83
2022/12/19 08:08:07;;;;;;;179.75;49.10;;;-0.80;99.90;;;;;;4229038;28;20076;-83
2022/12/19 08:10:29;;;;;;;228.50;50.20;;;-0.70;99.90;;;;;;4227504;28;20081;-83
2022/12/19 08:12:49;;;;;;;243.57;56.55;;;-0.70;99.90;;;;;;4227279;28;20043;-83
2022/12/19 08:15:13;;;;;;;216.00;46.10;;;-0.70;99.90;;;;;;4231176;28;20243;-83
2022/12/19 08:17:33;;;;;;;182.15;39.42;;;-0.70;99.90;;;;;;4229312;28;20051;-83
2022/12/19 08:19:54;;;;;;;352.88;51.05;;;-0.70;99.90;;;;;;4230943;28;20414;-83
2022/12/19 08:22:13;;;;;;;197.57;41.63;;;-0.70;99.90;;;;;;4227848;28;20047;-83
2022/12/19 08:24:33;;;;;;;242.48;45.75;;;-0.60;99.90;;;;;;4226683;28;20094;-83
2022/12/19 08:26:53;;;;;;;131.13;39.28;;;-0.70;99.90;;;;;;4232936;28;20246;-83
2022/12/19 08:29:12;;;;;;;407.33;49.85;;;-0.60;99.90;;;;;;4223008;28;20062;-84
2022/12/19 08:31:33;;;;;;;393.85;53.50;;;-0.60;99.90;;;;;;4226593;28;20051;-83
2022/12/19 08:33:54;;;;;;;321.52;44.42;;;-0.60;99.90;;;;;;4217180;28;20051;-83
2022/12/19 08:36:19;;;;;;;379.98;54.50;;;-0.50;99.90;;;;;;4216351;28;20046;-83
2022/12/19 08:38:39;;;;;;;465.85;56.88;;;-0.50;99.90;;;;;;4216483;28;20288;-83
2022/12/19 08:40:59;;;;;;;288.02;50.28;;;-0.60;99.90;;;;;;4223144;28;20133;-83
2022/12/19 08:43:20;;;;;;;267.17;47.95;;;-0.40;99.90;;;;;;4232600;28;20077;-83
2022/12/19 08:45:40;;;;;;;174.57;36.97;;;-0.30;99.90;;;;;;4234792;28;20043;-83
2022/12/19 08:47:59;;;;;;;181.95;39.15;;;-0.30;99.90;;;;;;4220212;28;20063;-83
2022/12/19 08:50:19;;;;;;;173.23;36.53;;;-0.20;99.90;;;;;;4214933;28;20046;-83
2022/12/19 08:52:39;;;;;;;163.05;34.50;;;-0.20;99.90;;;;;;4227288;28;20442;-83
2022/12/19 08:54:59;;;;;;;209.32;40.20;;;-0.10;99.90;;;;;;4229601;28;20054;-83
2022/12/19 08:57:19;;;;;;;248.70;49.05;;;-0.10;99.90;;;;;;4231085;28;20108;-82
2022/12/19 08:59:39;;;;;;;200.20;34.30;;;0.00;99.90;;;;;;4233021;28;20056;-83
2022/12/19 09:02:00;;;;;;;130.80;33.53;;;-0.10;99.90;;;;;;4233485;28;20117;-83
2022/12/19 09:04:21;;;;;;;309.88;40.05;;;0.00;99.90;;;;;;4231973;28;20456;-83
2022/12/19 09:07:01;;;;;;;118.57;35.83;;;0.00;99.90;;;;;;4216458;28;20062;-83
2022/12/19 09:09:21;;;;;;;445.08;49.75;;;0.10;99.90;;;;;;4214278;28;20043;-83
2022/12/19 09:11:41;;;;;;;275.45;44.92;;;0.20;99.90;;;;;;4231232;28;20043;-83
2022/12/19 09:14:07;;;;;;;183.32;37.92;;;0.20;99.90;;;;;;4227224;28;20394;-83
2022/12/19 09:16:27;;;;;;;360.85;40.95;;;0.30;99.90;;;;;;4227203;28;20043;-83
2022/12/19 09:18:50;;;;;;;196.25;28.58;;;0.30;99.90;;;;;;4211795;28;20109;-83
2022/12/19 09:21:10;;;;;;;142.13;32.55;;;0.40;99.90;;;;;;4230409;28;20067;-83
2022/12/19 09:23:30;;;;;;;93.47;32.28;;;0.40;99.90;;;;;;4216895;28;20051;-82
2022/12/19 09:25:50;;;;;;;98.32;31.63;;;0.50;99.90;;;;;;4217905;28;20247;-82
2022/12/19 09:28:10;;;;;;;99.78;29.83;;;0.50;99.90;;;;;;4226694;28;20093;-82
2022/12/19 09:30:55;;;;;;;137.05;31.55;;;0.60;99.90;;;;;;4217006;28;20049;-82
2022/12/19 09:33:15;;;;;;;130.13;40.05;;;0.60;99.90;;;;;;4231204;28;20070;-82
2022/12/19 09:35:36;;;;;;;187.60;44.20;;;0.70;99.90;;;;;;4217513;28;20263;-82
2022/12/19 09:37:56;;;;;;;180.15;30.08;;;0.70;99.90;;;;;;4225580;28;20042;-82
2022/12/19 09:40:20;;;;;;;278.83;34.22;;;0.70;99.90;;;;;;4213751;28;20043;-82
2022/12/19 09:43:17;;;;;;;289.17;39.25;;;0.70;99.90;;;;;;4229672;28;20389;-82
2022/12/19 09:45:41;;;;;;;329.02;39.17;;;0.80;99.90;;;;;;4214285;28;20300;-82
2022/12/19 09:48:02;;;;;;;256.25;32.00;;;0.80;99.90;;;;;;4213476;28;20043;-82
2022/12/19 09:50:28;;;;;;;124.95;23.88;;;1.00;99.90;;;;;;4219204;28;20055;-82
2022/12/19 09:52:57;;;;;;;80.30;20.50;;;1.00;99.90;;;;;;4225783;28;20058;-82
2022/12/19 09:55:30;;;;;;;138.57;35.67;;;1.00;99.90;;;;;;4214826;28;20066;-82
2022/12/19 09:58:12;;;;;;;216.20;29.85;;;1.10;99.90;;;;;;4214981;28;20047;-82
2022/12/19 10:00:43;;;;;;;275.38;34.50;;;1.30;99.90;;;;;;4232268;28;20066;-82
2022/12/19 10:03:22;;;;;;;124.63;35.60;;;1.30;99.90;;;;;;4214640;28;20126;-82
2022/12/19 10:05:50;;;;;;;68.15;17.40;;;1.50;99.90;;;;;;4218466;28;20056;-82
2022/12/19 10:08:34;;;;;;;219.63;23.48;;;1.60;99.90;;;;;;4229112;28;20114;-82
2022/12/19 10:11:15;;;;;;;60.92;19.27;;;1.70;99.90;;;;;;4232234;28;20098;-82
2022/12/19 10:14:37;;;;;;;30.08;21.63;;;1.80;99.90;;;;;;4225657;28;20039;-82
2022/12/19 10:17:08;;;;;;;22.60;17.73;;;2.00;99.90;;;;;;4154537;28;20056;-82
2022/12/19 10:19:56;;;;;;;20.33;18.27;;;2.20;99.90;;;;;;4154475;28;20053;-82
2022/12/19 10:22:49;;;;;;;17.30;16.05;;;2.50;99.90;;;;;;4154595;28;20048;-82
2022/12/19 10:25:22;;;;;;;21.00;19.33;;;2.60;99.90;;;;;;4154538;28;20060;-82
2022/12/19 10:28:07;;;;;;;17.98;16.45;;;2.80;99.90;;;;;;4153527;28;20096;-81
2022/12/19 10:30:35;;;;;;;23.23;21.15;;;3.00;99.90;;;;;;4153247;28;20048;-81
2022/12/19 10:33:21;;;;;;;17.92;16.42;;;3.20;99.90;;;;;;4153379;28;20277;-81
2022/12/19 10:35:44;;;;;;;18.98;17.30;;;3.10;99.90;;;;;;4154101;28;20146;-81
2022/12/19 10:38:27;;;;;;;13.93;13.02;;;3.20;99.90;;;;;;4154435;28;20092;-81
2022/12/19 10:40:52;;;;;;;20.35;18.40;;;3.30;99.90;;;;;;4154439;28;20292;-81
2022/12/19 10:43:39;;;;;;;17.52;16.38;;;3.30;99.90;;;;;;4153748;28;20126;-81
2022/12/19 10:46:38;;;;;;;19.35;17.80;;;3.30;99.90;;;;;;4152152;28;20041;-81
2022/12/19 10:48:58;;;;;;;20.13;18.70;;;3.40;99.90;;;;;;4098720;28;20063;-81
2022/12/19 10:51:24;;;;;;;17.27;15.85;;;3.40;99.90;;;;;;4145242;28;20097;-82
2022/12/19 10:53:55;;;;;;;15.45;14.43;;;3.60;99.90;;;;;;4178489;28;20049;-81
2022/12/19 10:56:26;;;;;;;14.23;13.60;;;3.70;99.90;;;;;;4173066;28;20084;-82
2022/12/19 10:58:57;;;;;;;13.48;12.77;;;3.60;99.90;;;;;;4168751;28;20157;-82
2022/12/19 11:01:34;;;;;;;14.23;13.07;;;3.60;99.90;;;;;;4165901;28;20084;-82
2022/12/19 11:04:17;;;;;;;18.35;16.75;;;3.80;99.90;;;;;;4168341;28;20128;-82
2022/12/19 11:06:50;;;;;;;16.48;14.95;;;3.80;99.90;;;;;;4167802;28;20052;-82
2022/12/19 11:09:17;;;;;;;17.70;16.45;;;3.70;99.90;;;;;;4169876;28;20060;-82
2022/12/19 11:11:38;;;;;;;16.83;15.48;;;3.70;99.90;;;;;;4170012;28;20141;-82
2022/12/19 11:14:26;;;;;;;17.58;16.30;;;3.80;99.90;;;;;;4171896;28;20067;-82
2022/12/19 11:17:26;;;;;;;17.95;16.38;;;3.90;99.90;;;;;;4172301;28;20141;-82
2022/12/19 11:20:12;;;;;;;19.17;17.85;;;3.90;99.90;;;;;;4169881;28;20480;-82
2022/12/19 11:23:02;;;;;;;16.20;15.00;;;4.00;99.90;;;;;;4172812;28;20398;-82
2022/12/19 11:25:42;;;;;;;16.63;15.27;;;4.10;99.90;;;;;;4206919;28;20092;-82
2022/12/19 11:28:25;;;;;;;16.67;15.45;;;4.40;99.90;;;;;;4231183;28;20045;-82
2022/12/19 11:31:09;;;;;;;21.42;19.35;;;4.60;99.90;;;;;;4220676;28;20047;-82
2022/12/19 11:34:03;;;;;;;23.73;21.48;;;4.60;99.90;;;;;;4221902;28;20116;-82
2022/12/19 11:36:48;;;;;;;21.90;19.85;;;4.60;99.90;;;;;;4235600;28;20121;-83
2022/12/19 11:39:39;;;;;;;24.83;22.65;;;4.60;99.90;;;;;;4232486;28;20055;-83
2022/12/19 11:42:20;;;;;;;26.98;23.92;;;4.70;99.90;;;;;;4230386;28;20097;-83
2022/12/19 11:44:46;;;;;;;22.35;20.23;;;4.80;99.90;;;;;;4215773;28;20066;-83
2022/12/19 11:47:34;;;;;;;31.25;26.92;;;4.90;99.90;;;;;;4230742;28;20057;-83
2022/12/19 11:50:13;;;;;;;27.30;24.67;;;4.90;99.90;;;;;;4233962;28;20050;-83
2022/12/19 11:53:21;;;;;;;28.25;25.30;;;4.90;99.90;;;;;;4231764;28;20038;-83
2022/12/19 11:55:59;;;;;;;26.50;22.50;;;4.90;99.90;;;;;;4220529;28;20432;-83
2022/12/19 11:58:23;;;;;;;33.15;29.02;;;5.10;99.90;;;;;;4232871;28;20050;-83
2022/12/19 12:00:55;;;;;;;34.35;27.88;;;5.20;99.90;;;;;;4231076;28;20051;-83
2022/12/19 12:03:37;;;;;;;23.30;21.10;;;5.20;99.90;;;;;;4227732;28;20076;-83
2022/12/19 12:06:03;;;;;;;24.63;22.33;;;5.20;99.90;;;;;;4222758;28;20281;-83
2022/12/19 12:08:32;;;;;;;17.90;16.38;;;5.20;99.90;;;;;;4233981;28;20053;-83
2022/12/19 12:11:33;;;;;;;20.25;18.52;;;5.20;99.90;;;;;;4221252;28;20042;-83
2022/12/19 12:14:21;;;;;;;19.40;17.40;;;5.20;99.90;;;;;;4221622;28;20234;-83
2022/12/19 12:17:30;;;;;;;15.52;14.32;;;5.30;99.90;;;;;;4233414;28;20074;-83
2022/12/19 12:20:22;;;;;;;8.93;8.68;;;5.30;99.90;;;;;;4216102;28;20069;-83
2022/12/19 12:23:24;;;;;;;15.98;14.80;;;5.50;99.90;;;;;;4217470;28;20121;-83
2022/12/19 12:26:06;;;;;;;15.43;14.02;;;5.60;99.90;;;;;;4224916;28;20059;-83
2022/12/19 12:29:16;;;;;;;13.73;12.63;;;5.70;99.90;;;;;;4227356;28;20043;-83
2022/12/19 12:32:10;;;;;;;13.32;12.48;;;5.80;99.90;;;;;;4225634;28;20096;-83